sensor_id;sensor_type;location;lat;lon;timestamp;P1;durP1;ratioP1;P2;durP2;ratioP2
76439;SDS011;65274;44.982;20.060;2023-10-19T08:58:10;12.75;;;7.85;;
76439;SDS011;65274;44.982;20.060;2023-10-19T09:00:45;10.45;;;7.93;;
76439;SDS011;65274;44.982;20.060;2023-10-19T09:03:36;11.40;;;6.85;;
76439;SDS011;65274;44.982;20.060;2023-10-19T09:06:12;15.30;;;7.38;;
76439;SDS011;65274;44.982;20.060;2023-10-19T09:09:00;11.40;;;7.28;;
76439;SDS011;65274;44.982;20.060;2023-10-19T09:11:35;11.63;;;7.40;;
76439;SDS011;65274;44.982;20.060;2023-10-19T09:14:49;15.85;;;7.05;;
76439;SDS011;65274;44.982;20.060;2023-10-19T09:17:16;8.65;;;6.50;;
76439;SDS011;65274;44.982;20.060;2023-10-19T09:20:03;10.07;;;6.22;;
76439;SDS011;65274;44.982;20.060;2023-10-19T09:22:35;7.97;;;6.15;;
76439;SDS011;65274;44.982;20.060;2023-10-19T09:25:09;11.40;;;5.60;;
76439;SDS011;65274;44.982;20.060;2023-10-19T09:33:01;8.32;;;5.30;;
76439;SDS011;65274;44.982;20.060;2023-10-19T09:37:56;6.95;;;4.82;;
76439;SDS011;65274;44.982;20.060;2023-10-19T09:40:26;7.00;;;5.82;;
76439;SDS011;65274;44.982;20.060;2023-10-19T09:42:55;10.20;;;5.97;;
76439;SDS011;65274;44.982;20.060;2023-10-19T09:45:22;6.13;;;5.18;;
76439;SDS011;65274;44.982;20.060;2023-10-19T09:47:50;5.38;;;4.75;;
76439;SDS011;65274;44.982;20.060;2023-10-19T09:50:17;7.57;;;5.00;;
76439;SDS011;65274;44.982;20.060;2023-10-19T09:52:43;4.60;;;4.20;;
76439;SDS011;65274;44.982;20.060;2023-10-19T09:57:48;11.95;;;4.88;;
76439;SDS011;65274;44.982;20.060;2023-10-19T10:00:17;8.52;;;7.78;;
76439;SDS011;65274;44.982;20.060;2023-10-19T10:02:52;5.60;;;4.53;;
76439;SDS011;65274;44.982;20.060;2023-10-19T10:08:31;8.20;;;5.18;;
76439;SDS011;65274;44.982;20.060;2023-10-19T10:10:58;10.52;;;5.28;;
76439;SDS011;65274;44.982;20.060;2023-10-19T10:15:56;6.43;;;4.75;;
76439;SDS011;65274;44.982;20.060;2023-10-19T10:18:35;6.97;;;4.40;;
76439;SDS011;65274;44.982;20.060;2023-10-19T10:23:37;3.80;;;3.13;;
76439;SDS011;65274;44.982;20.060;2023-10-19T10:26:06;8.50;;;3.10;;
76439;SDS011;65274;44.982;20.060;2023-10-19T10:28:34;6.10;;;3.45;;
76439;SDS011;65274;44.982;20.060;2023-10-19T10:33:56;6.85;;;3.60;;
76439;SDS011;65274;44.982;20.060;2023-10-19T10:36:22;4.00;;;3.17;;
76439;SDS011;65274;44.982;20.060;2023-10-19T10:38:51;4.90;;;3.97;;
76439;SDS011;65274;44.982;20.060;2023-10-19T10:41:25;5.40;;;3.25;;
76439;SDS011;65274;44.982;20.060;2023-10-19T10:43:54;4.55;;;3.00;;
76439;SDS011;65274;44.982;20.060;2023-10-19T10:46:23;3.92;;;3.30;;
76439;SDS011;65274;44.982;20.060;2023-10-19T10:48:50;4.07;;;3.20;;
76439;SDS011;65274;44.982;20.060;2023-10-19T10:51:20;4.72;;;2.38;;
76439;SDS011;65274;44.982;20.060;2023-10-19T10:53:50;5.85;;;2.90;;
76439;SDS011;65274;44.982;20.060;2023-10-19T10:56:22;7.10;;;3.10;;
76439;SDS011;65274;44.982;20.060;2023-10-19T10:58:49;4.78;;;2.90;;
76439;SDS011;65274;44.982;20.060;2023-10-19T11:01:15;6.88;;;2.97;;
76439;SDS011;65274;44.982;20.060;2023-10-19T11:03:46;6.45;;;3.25;;
76439;SDS011;65274;44.982;20.060;2023-10-19T11:06:13;4.97;;;2.67;;
76439;SDS011;65274;44.982;20.060;2023-10-19T11:08:39;5.10;;;2.90;;
76439;SDS011;65274;44.982;20.060;2023-10-19T11:13:35;3.08;;;2.03;;
76439;SDS011;65274;44.982;20.060;2023-10-19T11:16:04;3.50;;;2.33;;
76439;SDS011;65274;44.982;20.060;2023-10-19T11:18:36;3.50;;;2.22;;
76439;SDS011;65274;44.982;20.060;2023-10-19T11:21:11;3.13;;;2.20;;
76439;SDS011;65274;44.982;20.060;2023-10-19T11:26:11;4.60;;;2.60;;
76439;SDS011;65274;44.982;20.060;2023-10-19T11:28:39;4.75;;;2.35;;
76439;SDS011;65274;44.982;20.060;2023-10-19T11:31:10;3.75;;;2.78;;
76439;SDS011;65274;44.982;20.060;2023-10-19T11:33:40;4.20;;;2.30;;
76439;SDS011;65274;44.982;20.060;2023-10-19T11:36:10;4.40;;;2.60;;
76439;SDS011;65274;44.982;20.060;2023-10-19T11:38:38;3.40;;;2.20;;
76439;SDS011;65274;44.982;20.060;2023-10-19T11:41:15;4.55;;;3.58;;
76439;SDS011;65274;44.982;20.060;2023-10-19T11:44:01;7.07;;;3.47;;
76439;SDS011;65274;44.982;20.060;2023-10-19T11:46:28;5.33;;;3.67;;
76439;SDS011;65274;44.982;20.060;2023-10-19T11:48:56;6.05;;;2.80;;
76439;SDS011;65274;44.982;20.060;2023-10-19T11:51:22;4.85;;;3.10;;
76439;SDS011;65274;44.982;20.060;2023-10-19T11:53:48;6.70;;;2.70;;
76439;SDS011;65274;44.982;20.060;2023-10-19T11:56:15;8.15;;;3.03;;
76439;SDS011;65274;44.982;20.060;2023-10-19T11:58:41;6.00;;;3.00;;
76439;SDS011;65274;44.982;20.060;2023-10-19T12:01:09;4.85;;;3.25;;
76439;SDS011;65274;44.982;20.060;2023-10-19T12:03:41;5.55;;;2.63;;
76439;SDS011;65274;44.982;20.060;2023-10-19T12:06:14;2.67;;;2.40;;
76439;SDS011;65274;44.982;20.060;2023-10-19T12:08:50;6.68;;;3.33;;
76439;SDS011;65274;44.982;20.060;2023-10-19T12:11:20;5.03;;;3.28;;
76439;SDS011;65274;44.982;20.060;2023-10-19T12:13:47;5.82;;;5.10;;
76439;SDS011;65274;44.982;20.060;2023-10-19T12:16:17;8.82;;;7.93;;
76439;SDS011;65274;44.982;20.060;2023-10-19T12:18:45;12.32;;;6.53;;
76439;SDS011;65274;44.982;20.060;2023-10-19T12:21:24;10.48;;;5.82;;
76439;SDS011;65274;44.982;20.060;2023-10-19T12:23:52;13.73;;;8.00;;
76439;SDS011;65274;44.982;20.060;2023-10-19T12:26:21;10.48;;;6.93;;
76439;SDS011;65274;44.982;20.060;2023-10-19T12:28:47;6.70;;;5.55;;
76439;SDS011;65274;44.982;20.060;2023-10-19T12:31:14;6.97;;;5.83;;
76439;SDS011;65274;44.982;20.060;2023-10-19T12:33:43;7.78;;;4.40;;
76439;SDS011;65274;44.982;20.060;2023-10-19T12:36:10;7.03;;;4.22;;
76439;SDS011;65274;44.982;20.060;2023-10-19T12:38:58;5.75;;;3.78;;
76439;SDS011;65274;44.982;20.060;2023-10-19T12:41:30;6.70;;;3.42;;
76439;SDS011;65274;44.982;20.060;2023-10-19T12:43:57;7.73;;;3.90;;
76439;SDS011;65274;44.982;20.060;2023-10-19T12:46:27;5.93;;;3.90;;
76439;SDS011;65274;44.982;20.060;2023-10-19T12:48:55;6.43;;;3.30;;
76439;SDS011;65274;44.982;20.060;2023-10-19T12:51:23;7.80;;;3.67;;
76439;SDS011;65274;44.982;20.060;2023-10-19T12:53:51;7.95;;;4.18;;
76439;SDS011;65274;44.982;20.060;2023-10-19T12:56:25;9.93;;;4.82;;
76439;SDS011;65274;44.982;20.060;2023-10-19T12:58:53;12.02;;;6.40;;
76439;SDS011;65274;44.982;20.060;2023-10-19T13:01:20;6.75;;;4.38;;
76439;SDS011;65274;44.982;20.060;2023-10-19T13:03:46;7.95;;;4.45;;
76439;SDS011;65274;44.982;20.060;2023-10-19T13:06:14;9.55;;;5.32;;
76439;SDS011;65274;44.982;20.060;2023-10-19T13:08:40;9.38;;;4.40;;
76439;SDS011;65274;44.982;20.060;2023-10-19T13:11:07;7.93;;;3.60;;
76439;SDS011;65274;44.982;20.060;2023-10-19T13:13:41;6.10;;;3.17;;
76439;SDS011;65274;44.982;20.060;2023-10-19T13:16:08;3.73;;;2.60;;
76439;SDS011;65274;44.982;20.060;2023-10-19T13:18:40;4.82;;;3.30;;
76439;SDS011;65274;44.982;20.060;2023-10-19T13:21:13;3.92;;;3.15;;
76439;SDS011;65274;44.982;20.060;2023-10-19T13:23:46;9.55;;;3.90;;
76439;SDS011;65274;44.982;20.060;2023-10-19T13:26:13;6.30;;;3.50;;
76439;SDS011;65274;44.982;20.060;2023-10-19T13:28:39;9.57;;;3.50;;
76439;SDS011;65274;44.982;20.060;2023-10-19T13:31:07;8.02;;;4.03;;
76439;SDS011;65274;44.982;20.060;2023-10-19T13:33:39;9.48;;;3.15;;
76439;SDS011;65274;44.982;20.060;2023-10-19T13:38:32;9.55;;;4.03;;
76439;SDS011;65274;44.982;20.060;2023-10-19T13:40:59;5.97;;;3.90;;
76439;SDS011;65274;44.982;20.060;2023-10-19T13:43:25;7.85;;;4.00;;
76439;SDS011;65274;44.982;20.060;2023-10-19T13:45:51;4.80;;;3.13;;
76439;SDS011;65274;44.982;20.060;2023-10-19T13:48:18;6.03;;;4.97;;
76439;SDS011;65274;44.982;20.060;2023-10-19T13:50:48;4.53;;;3.65;;
76439;SDS011;65274;44.982;20.060;2023-10-19T13:53:17;4.90;;;2.53;;
76439;SDS011;65274;44.982;20.060;2023-10-19T13:55:45;9.45;;;3.45;;
76439;SDS011;65274;44.982;20.060;2023-10-19T13:58:12;6.97;;;4.40;;
76439;SDS011;65274;44.982;20.060;2023-10-19T14:00:40;8.77;;;4.72;;
76439;SDS011;65274;44.982;20.060;2023-10-19T14:03:08;7.22;;;4.47;;
76439;SDS011;65274;44.982;20.060;2023-10-19T14:08:05;10.70;;;6.20;;
76439;SDS011;65274;44.982;20.060;2023-10-19T14:10:32;7.17;;;6.43;;
76439;SDS011;65274;44.982;20.060;2023-10-19T14:12:58;9.18;;;5.97;;
76439;SDS011;65274;44.982;20.060;2023-10-19T14:15:29;7.80;;;4.20;;
76439;SDS011;65274;44.982;20.060;2023-10-19T14:17:58;9.27;;;4.53;;
76439;SDS011;65274;44.982;20.060;2023-10-19T14:20:25;8.02;;;4.25;;
76439;SDS011;65274;44.982;20.060;2023-10-19T14:22:52;8.48;;;3.67;;
76439;SDS011;65274;44.982;20.060;2023-10-19T14:25:19;7.40;;;4.32;;
76439;SDS011;65274;44.982;20.060;2023-10-19T14:27:48;5.65;;;3.85;;
76439;SDS011;65274;44.982;20.060;2023-10-19T14:30:15;7.05;;;3.95;;
76439;SDS011;65274;44.982;20.060;2023-10-19T14:32:46;11.30;;;4.30;;
76439;SDS011;65274;44.982;20.060;2023-10-19T14:35:14;5.78;;;4.05;;
76439;SDS011;65274;44.982;20.060;2023-10-19T14:37:51;11.43;;;3.45;;
76439;SDS011;65274;44.982;20.060;2023-10-19T14:40:20;10.73;;;5.50;;
76439;SDS011;65274;44.982;20.060;2023-10-19T14:42:47;8.10;;;4.88;;
76439;SDS011;65274;44.982;20.060;2023-10-19T14:47:41;7.88;;;4.35;;
76439;SDS011;65274;44.982;20.060;2023-10-19T14:50:24;9.43;;;4.95;;
76439;SDS011;65274;44.982;20.060;2023-10-19T14:52:56;10.73;;;4.78;;
76439;SDS011;65274;44.982;20.060;2023-10-19T14:55:25;6.32;;;4.13;;
76439;SDS011;65274;44.982;20.060;2023-10-19T14:58:01;11.07;;;4.50;;
76439;SDS011;65274;44.982;20.060;2023-10-19T15:00:33;6.22;;;4.60;;
76439;SDS011;65274;44.982;20.060;2023-10-19T15:03:17;13.88;;;5.57;;
76439;SDS011;65274;44.982;20.060;2023-10-19T15:05:44;10.75;;;5.93;;
76439;SDS011;65274;44.982;20.060;2023-10-19T15:08:11;10.05;;;6.68;;
76439;SDS011;65274;44.982;20.060;2023-10-19T15:10:44;11.27;;;7.10;;
76439;SDS011;65274;44.982;20.060;2023-10-19T15:13:12;8.40;;;5.38;;
76439;SDS011;65274;44.982;20.060;2023-10-19T15:15:39;8.43;;;4.72;;
76439;SDS011;65274;44.982;20.060;2023-10-19T15:18:05;7.10;;;4.18;;
76439;SDS011;65274;44.982;20.060;2023-10-19T15:20:35;4.68;;;3.67;;
76439;SDS011;65274;44.982;20.060;2023-10-19T15:23:05;5.38;;;4.50;;
76439;SDS011;65274;44.982;20.060;2023-10-19T15:25:36;8.00;;;3.80;;
76439;SDS011;65274;44.982;20.060;2023-10-19T15:28:05;9.25;;;5.05;;
76439;SDS011;65274;44.982;20.060;2023-10-19T15:30:52;11.27;;;5.15;;
76439;SDS011;65274;44.982;20.060;2023-10-19T15:33:18;9.23;;;5.57;;
76439;SDS011;65274;44.982;20.060;2023-10-19T15:35:47;8.60;;;6.22;;
76439;SDS011;65274;44.982;20.060;2023-10-19T15:38:16;9.32;;;5.93;;
76439;SDS011;65274;44.982;20.060;2023-10-19T15:40:43;13.18;;;6.43;;
76439;SDS011;65274;44.982;20.060;2023-10-19T15:43:16;11.80;;;6.40;;
76439;SDS011;65274;44.982;20.060;2023-10-19T15:45:42;11.50;;;7.45;;
76439;SDS011;65274;44.982;20.060;2023-10-19T15:50:55;8.20;;;5.93;;
76439;SDS011;65274;44.982;20.060;2023-10-19T15:53:22;13.27;;;7.18;;
76439;SDS011;65274;44.982;20.060;2023-10-19T15:58:44;10.13;;;6.38;;
76439;SDS011;65274;44.982;20.060;2023-10-19T16:04:04;12.13;;;5.50;;
76439;SDS011;65274;44.982;20.060;2023-10-19T16:06:47;8.63;;;5.45;;
76439;SDS011;65274;44.982;20.060;2023-10-19T16:09:32;6.13;;;5.25;;
76439;SDS011;65274;44.982;20.060;2023-10-19T16:14:47;9.32;;;5.45;;
76439;SDS011;65274;44.982;20.060;2023-10-19T16:20:14;8.57;;;5.68;;
76439;SDS011;65274;44.982;20.060;2023-10-19T16:22:51;11.23;;;5.80;;
76439;SDS011;65274;44.982;20.060;2023-10-19T16:25:44;8.90;;;6.63;;
76439;SDS011;65274;44.982;20.060;2023-10-19T16:28:28;11.00;;;5.70;;
